sensor_id;sensor_type;location;lat;lon;timestamp;temperature;humidity
4054;DHT22;2042;47.956;9.222;2023-02-14T00:02:02;-0.40;26.20
4054;DHT22;2042;47.956;9.222;2023-02-14T00:04:28;-0.40;26.20
4054;DHT22;2042;47.956;9.222;2023-02-14T00:06:54;-0.50;26.00
4054;DHT22;2042;47.956;9.222;2023-02-14T00:09:19;-0.50;26.00
4054;DHT22;2042;47.956;9.222;2023-02-14T00:11:45;-0.60;25.70
4054;DHT22;2042;47.956;9.222;2023-02-14T00:14:12;-0.80;25.40
4054;DHT22;2042;47.956;9.222;2023-02-14T00:16:56;-0.80;25.50
4054;DHT22;2042;47.956;9.222;2023-02-14T00:19:22;-0.80;25.60
4054;DHT22;2042;47.956;9.222;2023-02-14T00:21:49;-0.80;25.50
4054;DHT22;2042;47.956;9.222;2023-02-14T00:24:24;-0.80;25.50
4054;DHT22;2042;47.956;9.222;2023-02-14T00:26:51;-0.80;25.50
4054;DHT22;2042;47.956;9.222;2023-02-14T00:29:19;-0.80;25.60
4054;DHT22;2042;47.956;9.222;2023-02-14T00:31:45;-0.80;25.80
4054;DHT22;2042;47.956;9.222;2023-02-14T00:34:11;-0.90;25.70
4054;DHT22;2042;47.956;9.222;2023-02-14T00:36:37;-0.90;25.60
4054;DHT22;2042;47.956;9.222;2023-02-14T00:39:08;-0.90;25.70
4054;DHT22;2042;47.956;9.222;2023-02-14T00:41:34;-0.90;25.80
4054;DHT22;2042;47.956;9.222;2023-02-14T00:44:00;-0.90;25.70
4054;DHT22;2042;47.956;9.222;2023-02-14T00:46:27;-1.00;25.50
4054;DHT22;2042;47.956;9.222;2023-02-14T00:48:53;-1.00;25.50
4054;DHT22;2042;47.956;9.222;2023-02-14T00:51:20;-1.00;25.60
4054;DHT22;2042;47.956;9.222;2023-02-14T00:53:48;-1.00;25.70
4054;DHT22;2042;47.956;9.222;2023-02-14T00:56:14;-1.10;25.50
4054;DHT22;2042;47.956;9.222;2023-02-14T00:58:41;-1.10;25.50
4054;DHT22;2042;47.956;9.222;2023-02-14T01:01:07;-1.00;25.70
4054;DHT22;2042;47.956;9.222;2023-02-14T01:03:34;-1.00;25.80
4054;DHT22;2042;47.956;9.222;2023-02-14T01:06:00;-0.90;25.90
4054;DHT22;2042;47.956;9.222;2023-02-14T01:08:26;-0.90;25.90
4054;DHT22;2042;47.956;9.222;2023-02-14T01:10:51;-0.90;26.00
4054;DHT22;2042;47.956;9.222;2023-02-14T01:13:18;-0.80;26.10
4054;DHT22;2042;47.956;9.222;2023-02-14T01:15:46;-0.80;26.60
4054;DHT22;2042;47.956;9.222;2023-02-14T01:18:13;-0.90;25.90
4054;DHT22;2042;47.956;9.222;2023-02-14T01:20:39;-0.90;25.90
4054;DHT22;2042;47.956;9.222;2023-02-14T01:23:05;-1.00;25.80
4054;DHT22;2042;47.956;9.222;2023-02-14T01:25:31;-1.00;25.80
4054;DHT22;2042;47.956;9.222;2023-02-14T01:27:57;-1.10;25.70
4054;DHT22;2042;47.956;9.222;2023-02-14T01:30:23;-1.00;25.80
4054;DHT22;2042;47.956;9.222;2023-02-14T01:32:48;-1.00;25.80
4054;DHT22;2042;47.956;9.222;2023-02-14T01:35:14;-1.00;25.90
4054;DHT22;2042;47.956;9.222;2023-02-14T01:37:40;-1.00;25.90
4054;DHT22;2042;47.956;9.222;2023-02-14T01:40:07;-1.00;25.80
4054;DHT22;2042;47.956;9.222;2023-02-14T01:42:34;-1.00;25.90
4054;DHT22;2042;47.956;9.222;2023-02-14T01:47:35;-1.00;25.90
4054;DHT22;2042;47.956;9.222;2023-02-14T01:50:25;-0.90;26.00
4054;DHT22;2042;47.956;9.222;2023-02-14T01:52:59;-0.90;25.90
4054;DHT22;2042;47.956;9.222;2023-02-14T01:55:29;-1.00;25.90
4054;DHT22;2042;47.956;9.222;2023-02-14T01:58:10;-1.10;25.80
4054;DHT22;2042;47.956;9.222;2023-02-14T02:00:37;-1.10;25.80
4054;DHT22;2042;47.956;9.222;2023-02-14T02:03:35;-1.10;25.80
4054;DHT22;2042;47.956;9.222;2023-02-14T02:06:08;-1.10;25.80
4054;DHT22;2042;47.956;9.222;2023-02-14T02:08:42;-1.10;25.80
4054;DHT22;2042;47.956;9.222;2023-02-14T02:11:11;-1.10;25.80
4054;DHT22;2042;47.956;9.222;2023-02-14T02:13:37;-1.10;25.90
4054;DHT22;2042;47.956;9.222;2023-02-14T02:22:10;-1.20;25.70
4054;DHT22;2042;47.956;9.222;2023-02-14T02:27:51;-1.20;25.80
4054;DHT22;2042;47.956;9.222;2023-02-14T02:36:22;-1.20;25.70
4054;DHT22;2042;47.956;9.222;2023-02-14T02:39:34;-1.30;25.60
4054;DHT22;2042;47.956;9.222;2023-02-14T02:47:41;-1.40;25.40
4054;DHT22;2042;47.956;9.222;2023-02-14T02:50:22;-1.40;25.40
4054;DHT22;2042;47.956;9.222;2023-02-14T02:53:23;-1.40;25.50
4054;DHT22;2042;47.956;9.222;2023-02-14T02:56:02;-1.40;25.50
4054;DHT22;2042;47.956;9.222;2023-02-14T02:59:38;-1.30;25.60
4054;DHT22;2042;47.956;9.222;2023-02-14T03:01:52;-1.30;25.60
4054;DHT22;2042;47.956;9.222;2023-02-14T03:04:20;-1.30;25.60
4054;DHT22;2042;47.956;9.222;2023-02-14T03:07:05;-1.30;25.60
4054;DHT22;2042;47.956;9.222;2023-02-14T03:09:56;-1.30;25.60
4054;DHT22;2042;47.956;9.222;2023-02-14T03:24:20;-1.50;32.10
4054;DHT22;2042;47.956;9.222;2023-02-14T03:35:04;-1.60;33.00
4054;DHT22;2042;47.956;9.222;2023-02-14T03:37:42;-1.60;33.00
4054;DHT22;2042;47.956;9.222;2023-02-14T03:42:52;-1.60;32.90
4054;DHT22;2042;47.956;9.222;2023-02-14T03:45:31;-1.60;32.90
4054;DHT22;2042;47.956;9.222;2023-02-14T03:48:01;-1.60;32.90
4054;DHT22;2042;47.956;9.222;2023-02-14T03:50:30;-1.50;32.80
4054;DHT22;2042;47.956;9.222;2023-02-14T03:52:58;-1.50;32.80
4054;DHT22;2042;47.956;9.222;2023-02-14T03:55:34;-1.40;32.90
4054;DHT22;2042;47.956;9.222;2023-02-14T04:00:36;-1.40;32.90
4054;DHT22;2042;47.956;9.222;2023-02-14T04:03:07;-1.40;32.90
4054;DHT22;2042;47.956;9.222;2023-02-14T04:05:36;-1.50;32.70
4054;DHT22;2042;47.956;9.222;2023-02-14T04:08:06;-1.50;32.50
4054;DHT22;2042;47.956;9.222;2023-02-14T04:10:33;-1.60;32.30
4054;DHT22;2042;47.956;9.222;2023-02-14T04:12:58;-1.60;32.20
4054;DHT22;2042;47.956;9.222;2023-02-14T04:15:24;-1.60;32.30
4054;DHT22;2042;47.956;9.222;2023-02-14T04:17:49;-1.60;32.20
4054;DHT22;2042;47.956;9.222;2023-02-14T04:20:34;-1.60;36.30
4054;DHT22;2042;47.956;9.222;2023-02-14T04:23:01;-1.60;36.30
4054;DHT22;2042;47.956;9.222;2023-02-14T04:25:27;-1.60;36.40
4054;DHT22;2042;47.956;9.222;2023-02-14T04:27:53;-1.60;36.40
4054;DHT22;2042;47.956;9.222;2023-02-14T04:30:18;-1.60;36.20
4054;DHT22;2042;47.956;9.222;2023-02-14T04:32:46;-1.60;36.20
4054;DHT22;2042;47.956;9.222;2023-02-14T04:35:11;-1.70;36.10
4054;DHT22;2042;47.956;9.222;2023-02-14T04:37:37;-1.70;36.10
4054;DHT22;2042;47.956;9.222;2023-02-14T04:40:04;-1.60;36.20
4054;DHT22;2042;47.956;9.222;2023-02-14T04:42:29;-1.60;36.10
4054;DHT22;2042;47.956;9.222;2023-02-14T04:44:55;-1.70;36.10
4054;DHT22;2042;47.956;9.222;2023-02-14T04:47:21;-1.70;36.00
4054;DHT22;2042;47.956;9.222;2023-02-14T04:49:47;-1.80;35.90
4054;DHT22;2042;47.956;9.222;2023-02-14T04:52:12;-1.80;35.80
4054;DHT22;2042;47.956;9.222;2023-02-14T04:54:38;-1.90;35.70
4054;DHT22;2042;47.956;9.222;2023-02-14T04:57:04;-1.90;35.60
4054;DHT22;2042;47.956;9.222;2023-02-14T04:59:29;-2.00;35.60
4054;DHT22;2042;47.956;9.222;2023-02-14T05:01:55;-2.00;35.60
4054;DHT22;2042;47.956;9.222;2023-02-14T05:04:21;-2.00;35.50
4054;DHT22;2042;47.956;9.222;2023-02-14T05:06:46;-2.00;35.50
4054;DHT22;2042;47.956;9.222;2023-02-14T05:09:12;-1.90;35.60
4054;DHT22;2042;47.956;9.222;2023-02-14T05:11:38;-1.90;35.70
4054;DHT22;2042;47.956;9.222;2023-02-14T05:14:03;-1.80;35.80
4054;DHT22;2042;47.956;9.222;2023-02-14T05:16:29;-1.80;35.80
4054;DHT22;2042;47.956;9.222;2023-02-14T05:18:55;-1.70;35.90
4054;DHT22;2042;47.956;9.222;2023-02-14T05:21:21;-1.70;35.90
4054;DHT22;2042;47.956;9.222;2023-02-14T05:23:46;-1.70;35.90
4054;DHT22;2042;47.956;9.222;2023-02-14T05:26:12;-1.80;35.80
4054;DHT22;2042;47.956;9.222;2023-02-14T05:28:38;-1.80;35.80
4054;DHT22;2042;47.956;9.222;2023-02-14T05:31:05;-1.90;35.70
4054;DHT22;2042;47.956;9.222;2023-02-14T05:33:31;-1.90;35.70
4054;DHT22;2042;47.956;9.222;2023-02-14T05:36:00;-1.90;35.70
4054;DHT22;2042;47.956;9.222;2023-02-14T05:38:27;-1.90;35.60
4054;DHT22;2042;47.956;9.222;2023-02-14T05:40:53;-1.90;35.60
4054;DHT22;2042;47.956;9.222;2023-02-14T05:43:19;-1.90;35.60
4054;DHT22;2042;47.956;9.222;2023-02-14T05:45:45;-1.90;35.70
4054;DHT22;2042;47.956;9.222;2023-02-14T05:48:11;-1.90;35.60
4054;DHT22;2042;47.956;9.222;2023-02-14T05:50:36;-2.00;35.50
4054;DHT22;2042;47.956;9.222;2023-02-14T05:53:02;-2.00;35.50
4054;DHT22;2042;47.956;9.222;2023-02-14T05:55:29;-1.90;35.50
4054;DHT22;2042;47.956;9.222;2023-02-14T05:57:55;-1.80;35.70
4054;DHT22;2042;47.956;9.222;2023-02-14T06:00:21;-1.70;35.80
4054;DHT22;2042;47.956;9.222;2023-02-14T06:02:48;-1.70;35.80
4054;DHT22;2042;47.956;9.222;2023-02-14T06:05:13;-1.60;35.90
4054;DHT22;2042;47.956;9.222;2023-02-14T06:07:42;-1.70;35.80
4054;DHT22;2042;47.956;9.222;2023-02-14T06:10:10;-1.80;35.80
4054;DHT22;2042;47.956;9.222;2023-02-14T06:12:37;-1.80;35.70
4054;DHT22;2042;47.956;9.222;2023-02-14T06:15:03;-1.80;35.70
4054;DHT22;2042;47.956;9.222;2023-02-14T06:17:28;-1.80;35.70
4054;DHT22;2042;47.956;9.222;2023-02-14T06:19:54;-1.70;35.70
4054;DHT22;2042;47.956;9.222;2023-02-14T06:22:19;-1.70;35.80
4054;DHT22;2042;47.956;9.222;2023-02-14T06:24:46;-1.70;35.80
4054;DHT22;2042;47.956;9.222;2023-02-14T06:27:11;-1.70;35.70
4054;DHT22;2042;47.956;9.222;2023-02-14T06:29:37;-1.70;35.70
4054;DHT22;2042;47.956;9.222;2023-02-14T06:32:03;-1.70;35.80
4054;DHT22;2042;47.956;9.222;2023-02-14T06:34:30;-1.70;35.80
4054;DHT22;2042;47.956;9.222;2023-02-14T06:36:55;-1.70;35.80
4054;DHT22;2042;47.956;9.222;2023-02-14T06:39:21;-1.60;35.90
4054;DHT22;2042;47.956;9.222;2023-02-14T06:41:47;-1.60;35.90
4054;DHT22;2042;47.956;9.222;2023-02-14T06:44:12;-1.60;35.90
4054;DHT22;2042;47.956;9.222;2023-02-14T06:46:38;-1.60;35.90
4054;DHT22;2042;47.956;9.222;2023-02-14T06:49:04;-1.60;35.90
4054;DHT22;2042;47.956;9.222;2023-02-14T06:51:29;-1.50;36.00
4054;DHT22;2042;47.956;9.222;2023-02-14T06:53:55;-1.60;35.90
4054;DHT22;2042;47.956;9.222;2023-02-14T06:56:20;-1.60;35.90
4054;DHT22;2042;47.956;9.222;2023-02-14T06:58:46;-1.60;35.90
4054;DHT22;2042;47.956;9.222;2023-02-14T07:01:12;-1.60;36.00
4054;DHT22;2042;47.956;9.222;2023-02-14T07:03:38;-1.80;35.70
4054;DHT22;2042;47.956;9.222;2023-02-14T07:06:03;-1.80;35.60
4054;DHT22;2042;47.956;9.222;2023-02-14T07:08:29;-1.80;35.60
4054;DHT22;2042;47.956;9.222;2023-02-14T07:10:56;-1.80;35.70
4054;DHT22;2042;47.956;9.222;2023-02-14T07:13:22;-1.70;35.70
4054;DHT22;2042;47.956;9.222;2023-02-14T07:15:47;-1.60;35.90
4054;DHT22;2042;47.956;9.222;2023-02-14T07:18:13;-1.50;35.90
4054;DHT22;2042;47.956;9.222;2023-02-14T07:20:39;-1.50;36.00
4054;DHT22;2042;47.956;9.222;2023-02-14T07:23:04;-1.40;36.10
4054;DHT22;2042;47.956;9.222;2023-02-14T07:25:30;-1.40;36.10
4054;DHT22;2042;47.956;9.222;2023-02-14T07:27:56;-1.40;36.10
4054;DHT22;2042;47.956;9.222;2023-02-14T07:30:21;-1.50;36.00
4054;DHT22;2042;47.956;9.222;2023-02-14T07:32:47;-1.40;36.10
4054;DHT22;2042;47.956;9.222;2023-02-14T07:35:13;-1.40;36.10
4054;DHT22;2042;47.956;9.222;2023-02-14T07:37:39;-1.30;36.10
4054;DHT22;2042;47.956;9.222;2023-02-14T07:40:07;-1.20;36.00
4054;DHT22;2042;47.956;9.222;2023-02-14T07:42:32;-1.20;36.10
4054;DHT22;2042;47.956;9.222;2023-02-14T07:44:58;-1.10;36.10
4054;DHT22;2042;47.956;9.222;2023-02-14T07:47:24;-1.10;36.10
4054;DHT22;2042;47.956;9.222;2023-02-14T07:49:50;-1.10;36.10
4054;DHT22;2042;47.956;9.222;2023-02-14T07:52:16;-1.10;36.00
4054;DHT22;2042;47.956;9.222;2023-02-14T07:54:41;-1.00;36.00
4054;DHT22;2042;47.956;9.222;2023-02-14T07:57:07;-0.90;36.20
4054;DHT22;2042;47.956;9.222;2023-02-14T07:59:33;-0.90;36.30
4054;DHT22;2042;47.956;9.222;2023-02-14T08:01:59;-1.00;36.20
4054;DHT22;2042;47.956;9.222;2023-02-14T08:04:32;-1.10;36.10
4054;DHT22;2042;47.956;9.222;2023-02-14T08:06:58;-1.20;36.00
4054;DHT22;2042;47.956;9.222;2023-02-14T08:09:24;-1.20;36.50
4054;DHT22;2042;47.956;9.222;2023-02-14T08:11:56;-1.20;35.90
4054;DHT22;2042;47.956;9.222;2023-02-14T08:14:41;-1.20;35.90
4054;DHT22;2042;47.956;9.222;2023-02-14T08:17:08;-1.20;35.90
4054;DHT22;2042;47.956;9.222;2023-02-14T08:19:35;-1.10;36.60
4054;DHT22;2042;47.956;9.222;2023-02-14T08:22:02;-1.10;36.00
4054;DHT22;2042;47.956;9.222;2023-02-14T08:24:28;-0.90;36.00
4054;DHT22;2042;47.956;9.222;2023-02-14T08:26:54;-0.60;36.10
4054;DHT22;2042;47.956;9.222;2023-02-14T08:29:19;-0.30;36.50
4054;DHT22;2042;47.956;9.222;2023-02-14T08:31:46;-0.20;36.80
4054;DHT22;2042;47.956;9.222;2023-02-14T08:34:13;0.00;37.10
4054;DHT22;2042;47.956;9.222;2023-02-14T08:36:39;0.10;37.30
4054;DHT22;2042;47.956;9.222;2023-02-14T08:39:06;0.20;37.40
4054;DHT22;2042;47.956;9.222;2023-02-14T08:41:32;0.20;37.40
4054;DHT22;2042;47.956;9.222;2023-02-14T08:43:58;0.30;37.50
4054;DHT22;2042;47.956;9.222;2023-02-14T08:46:24;0.40;37.70
4054;DHT22;2042;47.956;9.222;2023-02-14T08:48:50;0.30;37.90
4054;DHT22;2042;47.956;9.222;2023-02-14T08:51:18;0.30;37.90
4054;DHT22;2042;47.956;9.222;2023-02-14T08:53:44;0.20;37.90
4054;DHT22;2042;47.956;9.222;2023-02-14T08:56:14;0.40;37.90
4054;DHT22;2042;47.956;9.222;2023-02-14T08:58:40;0.70;38.80
4054;DHT22;2042;47.956;9.222;2023-02-14T09:01:11;0.90;38.80
4054;DHT22;2042;47.956;9.222;2023-02-14T09:03:38;0.90;39.20
4054;DHT22;2042;47.956;9.222;2023-02-14T09:06:06;1.00;39.40
4054;DHT22;2042;47.956;9.222;2023-02-14T09:08:32;1.10;39.60
4054;DHT22;2042;47.956;9.222;2023-02-14T09:11:06;1.20;39.80
4054;DHT22;2042;47.956;9.222;2023-02-14T09:13:32;1.40;40.30
4054;DHT22;2042;47.956;9.222;2023-02-14T09:15:57;1.50;40.50
4054;DHT22;2042;47.956;9.222;2023-02-14T09:18:23;1.60;41.00
4054;DHT22;2042;47.956;9.222;2023-02-14T09:20:49;1.70;41.30
4054;DHT22;2042;47.956;9.222;2023-02-14T09:23:15;1.70;41.40
4054;DHT22;2042;47.956;9.222;2023-02-14T09:25:41;1.60;41.20
4054;DHT22;2042;47.956;9.222;2023-02-14T09:28:07;1.60;41.30
4054;DHT22;2042;47.956;9.222;2023-02-14T09:30:33;1.70;41.40
4054;DHT22;2042;47.956;9.222;2023-02-14T09:32:58;1.80;41.70
4054;DHT22;2042;47.956;9.222;2023-02-14T09:35:25;1.90;41.70
4054;DHT22;2042;47.956;9.222;2023-02-14T09:37:56;2.00;42.30
4054;DHT22;2042;47.956;9.222;2023-02-14T09:40:22;2.20;42.10
4054;DHT22;2042;47.956;9.222;2023-02-14T09:45:40;2.40;41.40
4054;DHT22;2042;47.956;9.222;2023-02-14T09:48:25;2.50;41.60
4054;DHT22;2042;47.956;9.222;2023-02-14T09:50:58;2.60;41.80
4054;DHT22;2042;47.956;9.222;2023-02-14T09:53:27;2.70;41.90
4054;DHT22;2042;47.956;9.222;2023-02-14T09:56:03;2.90;41.90
4054;DHT22;2042;47.956;9.222;2023-02-14T09:58:35;3.10;42.30
4054;DHT22;2042;47.956;9.222;2023-02-14T10:01:12;3.20;41.40
4054;DHT22;2042;47.956;9.222;2023-02-14T10:10:02;3.60;37.60
4054;DHT22;2042;47.956;9.222;2023-02-14T10:15:14;4.00;34.40
4054;DHT22;2042;47.956;9.222;2023-02-14T10:17:47;4.00;27.90
4054;DHT22;2042;47.956;9.222;2023-02-14T10:22:48;3.80;24.90
4054;DHT22;2042;47.956;9.222;2023-02-14T10:25:28;3.80;24.40
4054;DHT22;2042;47.956;9.222;2023-02-14T10:27:57;3.80;19.50
4054;DHT22;2042;47.956;9.222;2023-02-14T10:30:25;3.70;14.30
4054;DHT22;2042;47.956;9.222;2023-02-14T10:33:22;3.60;15.40
4054;DHT22;2042;47.956;9.222;2023-02-14T10:38:53;4.10;24.40
4054;DHT22;2042;47.956;9.222;2023-02-14T10:44:24;4.70;19.40
4054;DHT22;2042;47.956;9.222;2023-02-14T10:50:26;5.40;20.70
4054;DHT22;2042;47.956;9.222;2023-02-14T10:58:30;5.50;4.40
4054;DHT22;2042;47.956;9.222;2023-02-14T11:00:58;5.60;9.00
4054;DHT22;2042;47.956;9.222;2023-02-14T11:03:27;5.80;11.70
4054;DHT22;2042;47.956;9.222;2023-02-14T11:08:33;6.40;10.90
4054;DHT22;2042;47.956;9.222;2023-02-14T11:13:39;7.00;14.90
4054;DHT22;2042;47.956;9.222;2023-02-14T11:16:10;7.10;4.90
4054;DHT22;2042;47.956;9.222;2023-02-14T11:18:39;7.00;1.50
4054;DHT22;2042;47.956;9.222;2023-02-14T11:21:12;7.10;1.00
4054;DHT22;2042;47.956;9.222;2023-02-14T11:23:42;7.10;1.00
4054;DHT22;2042;47.956;9.222;2023-02-14T11:26:30;7.10;1.00
4054;DHT22;2042;47.956;9.222;2023-02-14T11:29:09;6.70;1.00
4054;DHT22;2042;47.956;9.222;2023-02-14T11:34:39;7.10;1.00
4054;DHT22;2042;47.956;9.222;2023-02-14T11:39:42;6.80;1.00
4054;DHT22;2042;47.956;9.222;2023-02-14T11:42:11;6.50;1.00
4054;DHT22;2042;47.956;9.222;2023-02-14T11:44:53;6.90;1.00
4054;DHT22;2042;47.956;9.222;2023-02-14T11:47:30;7.30;1.00
4054;DHT22;2042;47.956;9.222;2023-02-14T11:49:59;7.60;1.00
4054;DHT22;2042;47.956;9.222;2023-02-14T11:52:27;7.60;1.00
4054;DHT22;2042;47.956;9.222;2023-02-14T11:54:56;7.70;1.00
4054;DHT22;2042;47.956;9.222;2023-02-14T12:00:00;8.40;1.00
4054;DHT22;2042;47.956;9.222;2023-02-14T12:02:40;8.80;1.00
4054;DHT22;2042;47.956;9.222;2023-02-14T12:07:45;10.30;1.00
4054;DHT22;2042;47.956;9.222;2023-02-14T12:18:24;10.50;1.00
4054;DHT22;2042;47.956;9.222;2023-02-14T12:23:46;12.50;1.00
4054;DHT22;2042;47.956;9.222;2023-02-14T12:29:21;15.90;1.00
4054;DHT22;2042;47.956;9.222;2023-02-14T12:31:51;17.00;1.00
4054;DHT22;2042;47.956;9.222;2023-02-14T12:34:18;17.40;1.00
4054;DHT22;2042;47.956;9.222;2023-02-14T12:37:03;17.60;1.00
4054;DHT22;2042;47.956;9.222;2023-02-14T12:42:27;17.10;1.00
4054;DHT22;2042;47.956;9.222;2023-02-14T12:45:19;17.00;1.00
4054;DHT22;2042;47.956;9.222;2023-02-14T12:48:17;17.00;1.00
4054;DHT22;2042;47.956;9.222;2023-02-14T12:51:04;17.30;1.00
4054;DHT22;2042;47.956;9.222;2023-02-14T12:54:09;17.40;1.00
4054;DHT22;2042;47.956;9.222;2023-02-14T12:58:22;17.40;1.00
4054;DHT22;2042;47.956;9.222;2023-02-14T13:22:18;16.30;1.00
4054;DHT22;2042;47.956;9.222;2023-02-14T13:24:48;16.10;1.00
4054;DHT22;2042;47.956;9.222;2023-02-14T13:27:23;16.30;1.00
4054;DHT22;2042;47.956;9.222;2023-02-14T13:30:02;16.30;1.00
4054;DHT22;2042;47.956;9.222;2023-02-14T13:32:37;16.00;1.00
4054;DHT22;2042;47.956;9.222;2023-02-14T13:35:05;15.60;1.00
4054;DHT22;2042;47.956;9.222;2023-02-14T13:37:33;14.90;1.00
4054;DHT22;2042;47.956;9.222;2023-02-14T13:40:17;13.50;1.00
4054;DHT22;2042;47.956;9.222;2023-02-14T13:48:18;9.10;1.00
4054;DHT22;2042;47.956;9.222;2023-02-14T13:53:44;8.10;1.00
4054;DHT22;2042;47.956;9.222;2023-02-14T13:59:02;7.30;1.00
4054;DHT22;2042;47.956;9.222;2023-02-14T14:01:38;7.10;1.00
4054;DHT22;2042;47.956;9.222;2023-02-14T14:22:54;7.00;1.00
4054;DHT22;2042;47.956;9.222;2023-02-14T14:25:33;7.00;1.00
4054;DHT22;2042;47.956;9.222;2023-02-14T14:28:09;7.00;1.00
4054;DHT22;2042;47.956;9.222;2023-02-14T14:30:35;7.00;1.00
4054;DHT22;2042;47.956;9.222;2023-02-14T14:35:39;7.00;1.00
4054;DHT22;2042;47.956;9.222;2023-02-14T14:38:15;7.00;1.00
4054;DHT22;2042;47.956;9.222;2023-02-14T14:40:45;7.00;1.00
4054;DHT22;2042;47.956;9.222;2023-02-14T14:43:14;7.00;1.00
4054;DHT22;2042;47.956;9.222;2023-02-14T14:45:45;7.00;1.00
4054;DHT22;2042;47.956;9.222;2023-02-14T14:48:40;7.00;1.00
4054;DHT22;2042;47.956;9.222;2023-02-14T14:51:08;7.00;1.00
4054;DHT22;2042;47.956;9.222;2023-02-14T14:53:49;7.00;1.00
4054;DHT22;2042;47.956;9.222;2023-02-14T14:56:23;6.90;1.00
4054;DHT22;2042;47.956;9.222;2023-02-14T14:58:50;6.90;1.00
4054;DHT22;2042;47.956;9.222;2023-02-14T15:01:36;6.80;1.00
4054;DHT22;2042;47.956;9.222;2023-02-14T15:06:34;6.70;1.00
4054;DHT22;2042;47.956;9.222;2023-02-14T15:09:10;6.60;1.00
4054;DHT22;2042;47.956;9.222;2023-02-14T15:11:38;6.60;1.00
4054;DHT22;2042;47.956;9.222;2023-02-14T15:14:24;6.50;1.00
4054;DHT22;2042;47.956;9.222;2023-02-14T15:16:53;6.40;1.00
4054;DHT22;2042;47.956;9.222;2023-02-14T15:22:04;6.30;1.00
4054;DHT22;2042;47.956;9.222;2023-02-14T15:24:31;6.30;1.00
4054;DHT22;2042;47.956;9.222;2023-02-14T15:27:00;6.30;1.00
4054;DHT22;2042;47.956;9.222;2023-02-14T15:29:29;6.30;1.00
4054;DHT22;2042;47.956;9.222;2023-02-14T15:31:59;6.30;1.00
4054;DHT22;2042;47.956;9.222;2023-02-14T15:34:29;6.20;1.00
4054;DHT22;2042;47.956;9.222;2023-02-14T15:36:58;6.10;1.00
4054;DHT22;2042;47.956;9.222;2023-02-14T15:39:47;6.00;1.00
4054;DHT22;2042;47.956;9.222;2023-02-14T15:42:24;5.80;1.00
4054;DHT22;2042;47.956;9.222;2023-02-14T15:47:45;5.50;1.00
4054;DHT22;2042;47.956;9.222;2023-02-14T15:50:20;5.40;1.00
4054;DHT22;2042;47.956;9.222;2023-02-14T15:52:54;5.20;1.00
4054;DHT22;2042;47.956;9.222;2023-02-14T15:55:23;5.10;1.00
4054;DHT22;2042;47.956;9.222;2023-02-14T15:57:55;4.90;1.00
4054;DHT22;2042;47.956;9.222;2023-02-14T16:00:22;4.60;1.00
4054;DHT22;2042;47.956;9.222;2023-02-14T16:02:59;4.40;1.00
4054;DHT22;2042;47.956;9.222;2023-02-14T16:05:27;4.20;1.00
4054;DHT22;2042;47.956;9.222;2023-02-14T16:08:00;4.10;1.00
4054;DHT22;2042;47.956;9.222;2023-02-14T16:15:22;3.80;1.00
4054;DHT22;2042;47.956;9.222;2023-02-14T16:17:49;3.60;1.00
4054;DHT22;2042;47.956;9.222;2023-02-14T16:20:24;3.50;1.00
4054;DHT22;2042;47.956;9.222;2023-02-14T16:22:51;3.40;1.00
4054;DHT22;2042;47.956;9.222;2023-02-14T16:25:17;3.30;1.00
4054;DHT22;2042;47.956;9.222;2023-02-14T16:27:45;3.10;1.00
4054;DHT22;2042;47.956;9.222;2023-02-14T16:30:17;2.90;1.00
4054;DHT22;2042;47.956;9.222;2023-02-14T16:32:54;2.70;1.00
4054;DHT22;2042;47.956;9.222;2023-02-14T16:35:21;2.50;1.00
4054;DHT22;2042;47.956;9.222;2023-02-14T16:37:49;2.20;1.00
4054;DHT22;2042;47.956;9.222;2023-02-14T16:40:20;2.00;1.00
4054;DHT22;2042;47.956;9.222;2023-02-14T16:42:48;1.80;1.00
4054;DHT22;2042;47.956;9.222;2023-02-14T16:45:17;1.60;1.00
4054;DHT22;2042;47.956;9.222;2023-02-14T16:47:48;1.60;1.00
4054;DHT22;2042;47.956;9.222;2023-02-14T16:50:15;1.50;1.00
4054;DHT22;2042;47.956;9.222;2023-02-14T16:52:47;1.40;1.00
4054;DHT22;2042;47.956;9.222;2023-02-14T16:55:17;1.20;1.00
4054;DHT22;2042;47.956;9.222;2023-02-14T16:57:47;1.10;1.00
4054;DHT22;2042;47.956;9.222;2023-02-14T17:00:16;1.10;1.00
4054;DHT22;2042;47.956;9.222;2023-02-14T17:02:43;1.10;1.00
4054;DHT22;2042;47.956;9.222;2023-02-14T17:05:09;1.20;1.00
4054;DHT22;2042;47.956;9.222;2023-02-14T17:07:36;1.20;1.00
4054;DHT22;2042;47.956;9.222;2023-02-14T17:10:07;1.20;1.00
4054;DHT22;2042;47.956;9.222;2023-02-14T17:12:37;1.10;1.00
4054;DHT22;2042;47.956;9.222;2023-02-14T17:15:11;1.00;1.00
4054;DHT22;2042;47.956;9.222;2023-02-14T17:17:38;0.80;1.00
4054;DHT22;2042;47.956;9.222;2023-02-14T17:20:05;0.60;1.00
4054;DHT22;2042;47.956;9.222;2023-02-14T17:22:34;0.40;1.00
4054;DHT22;2042;47.956;9.222;2023-02-14T17:25:03;0.20;1.00
4054;DHT22;2042;47.956;9.222;2023-02-14T17:27:31;-0.10;1.00
4054;DHT22;2042;47.956;9.222;2023-02-14T17:29:59;-0.30;1.00
4054;DHT22;2042;47.956;9.222;2023-02-14T17:32:25;-0.50;1.00
4054;DHT22;2042;47.956;9.222;2023-02-14T17:34:51;-0.60;1.00
4054;DHT22;2042;47.956;9.222;2023-02-14T17:37:17;-0.60;1.00
4054;DHT22;2042;47.956;9.222;2023-02-14T17:39:44;-0.70;1.00
4054;DHT22;2042;47.956;9.222;2023-02-14T17:42:10;-0.90;1.00
4054;DHT22;2042;47.956;9.222;2023-02-14T17:44:36;-1.00;1.00
4054;DHT22;2042;47.956;9.222;2023-02-14T17:47:04;-1.10;1.00
4054;DHT22;2042;47.956;9.222;2023-02-14T17:49:34;-1.10;1.00
4054;DHT22;2042;47.956;9.222;2023-02-14T18:02:34;-1.10;1.00
4054;DHT22;2042;47.956;9.222;2023-02-14T18:04:59;-1.30;1.00
4054;DHT22;2042;47.956;9.222;2023-02-14T18:07:26;-1.40;1.00
4054;DHT22;2042;47.956;9.222;2023-02-14T18:09:51;-1.50;1.00
4054;DHT22;2042;47.956;9.222;2023-02-14T18:12:17;-1.60;1.00
4054;DHT22;2042;47.956;9.222;2023-02-14T18:14:43;-1.70;1.00
4054;DHT22;2042;47.956;9.222;2023-02-14T18:17:11;-1.80;1.00
4054;DHT22;2042;47.956;9.222;2023-02-14T18:19:38;-2.00;1.00
4054;DHT22;2042;47.956;9.222;2023-02-14T18:22:03;-2.10;1.00
4054;DHT22;2042;47.956;9.222;2023-02-14T18:24:29;-2.20;1.00
4054;DHT22;2042;47.956;9.222;2023-02-14T18:26:55;-2.30;1.00
4054;DHT22;2042;47.956;9.222;2023-02-14T18:29:21;-2.40;1.00
4054;DHT22;2042;47.956;9.222;2023-02-14T18:31:49;-2.50;1.00
4054;DHT22;2042;47.956;9.222;2023-02-14T18:34:15;-2.60;1.00
4054;DHT22;2042;47.956;9.222;2023-02-14T18:36:40;-2.70;1.00
4054;DHT22;2042;47.956;9.222;2023-02-14T18:39:07;-2.80;1.00
4054;DHT22;2042;47.956;9.222;2023-02-14T18:41:34;-2.80;1.00
4054;DHT22;2042;47.956;9.222;2023-02-14T18:44:00;-2.90;1.00
4054;DHT22;2042;47.956;9.222;2023-02-14T18:46:28;-3.00;1.00
4054;DHT22;2042;47.956;9.222;2023-02-14T18:48:55;-3.10;1.00
4054;DHT22;2042;47.956;9.222;2023-02-14T18:51:30;-3.10;1.00
4054;DHT22;2042;47.956;9.222;2023-02-14T18:53:57;-3.20;1.00
4054;DHT22;2042;47.956;9.222;2023-02-14T18:56:26;-3.30;1.00
4054;DHT22;2042;47.956;9.222;2023-02-14T18:58:58;-3.30;1.00
4054;DHT22;2042;47.956;9.222;2023-02-14T19:01:27;-3.30;1.00
4054;DHT22;2042;47.956;9.222;2023-02-14T19:03:57;-3.30;1.00
4054;DHT22;2042;47.956;9.222;2023-02-14T19:06:25;-3.30;1.00
4054;DHT22;2042;47.956;9.222;2023-02-14T19:08:51;-3.20;1.00
4054;DHT22;2042;47.956;9.222;2023-02-14T19:11:20;-3.20;1.30
4054;DHT22;2042;47.956;9.222;2023-02-14T19:13:49;-3.20;1.00
4054;DHT22;2042;47.956;9.222;2023-02-14T19:16:19;-3.20;1.00
4054;DHT22;2042;47.956;9.222;2023-02-14T19:18:46;-3.30;1.00
4054;DHT22;2042;47.956;9.222;2023-02-14T19:21:16;-3.40;1.00
4054;DHT22;2042;47.956;9.222;2023-02-14T19:23:42;-3.50;1.00
4054;DHT22;2042;47.956;9.222;2023-02-14T19:26:18;-3.50;1.00
4054;DHT22;2042;47.956;9.222;2023-02-14T19:28:45;-3.40;1.30
4054;DHT22;2042;47.956;9.222;2023-02-14T19:31:11;-3.30;1.40
4054;DHT22;2042;47.956;9.222;2023-02-14T19:33:39;-3.30;1.00
4054;DHT22;2042;47.956;9.222;2023-02-14T19:36:06;-3.40;1.00
4054;DHT22;2042;47.956;9.222;2023-02-14T19:38:34;-3.50;1.00
4054;DHT22;2042;47.956;9.222;2023-02-14T19:40:59;-3.60;1.00